sensor_id;sensor_type;location;lat;lon;timestamp;temperature;humidity
10572;DHT22;5334;48.928;12.704;2023-02-16T00:01:34;-1.00;99.90
10572;DHT22;5334;48.928;12.704;2023-02-16T00:04:00;-1.10;99.90
10572;DHT22;5334;48.928;12.704;2023-02-16T00:06:28;-1.10;99.90
10572;DHT22;5334;48.928;12.704;2023-02-16T00:08:55;-1.10;99.90
10572;DHT22;5334;48.928;12.704;2023-02-16T00:11:30;-1.10;99.90
10572;DHT22;5334;48.928;12.704;2023-02-16T00:14:15;-1.10;99.90
10572;DHT22;5334;48.928;12.704;2023-02-16T00:16:41;-1.10;99.90
10572;DHT22;5334;48.928;12.704;2023-02-16T00:19:26;-1.10;99.90
10572;DHT22;5334;48.928;12.704;2023-02-16T00:21:54;-1.10;99.90
10572;DHT22;5334;48.928;12.704;2023-02-16T00:24:20;-1.20;99.90
10572;DHT22;5334;48.928;12.704;2023-02-16T00:26:47;-1.10;99.90
10572;DHT22;5334;48.928;12.704;2023-02-16T00:29:26;-1.10;99.90
10572;DHT22;5334;48.928;12.704;2023-02-16T00:31:53;-1.20;99.90
10572;DHT22;5334;48.928;12.704;2023-02-16T00:34:35;-1.20;99.90
10572;DHT22;5334;48.928;12.704;2023-02-16T00:37:04;-1.20;99.90
10572;DHT22;5334;48.928;12.704;2023-02-16T00:39:30;-1.20;99.90
10572;DHT22;5334;48.928;12.704;2023-02-16T00:44:45;-1.20;99.90
10572;DHT22;5334;48.928;12.704;2023-02-16T00:47:29;-1.20;99.90
10572;DHT22;5334;48.928;12.704;2023-02-16T00:49:55;-1.20;99.90
10572;DHT22;5334;48.928;12.704;2023-02-16T00:52:38;-1.20;99.90
10572;DHT22;5334;48.928;12.704;2023-02-16T00:55:10;-1.20;99.90
10572;DHT22;5334;48.928;12.704;2023-02-16T00:57:47;-1.10;99.90
10572;DHT22;5334;48.928;12.704;2023-02-16T01:00:29;-1.10;99.90
10572;DHT22;5334;48.928;12.704;2023-02-16T01:02:59;-1.00;99.90
10572;DHT22;5334;48.928;12.704;2023-02-16T01:05:25;-1.00;99.90
10572;DHT22;5334;48.928;12.704;2023-02-16T01:07:51;-1.00;99.90
10572;DHT22;5334;48.928;12.704;2023-02-16T01:10:36;-1.00;99.90
10572;DHT22;5334;48.928;12.704;2023-02-16T01:13:22;-1.10;99.90
10572;DHT22;5334;48.928;12.704;2023-02-16T01:15:48;-1.20;99.90
10572;DHT22;5334;48.928;12.704;2023-02-16T01:18:16;-1.20;99.90
10572;DHT22;5334;48.928;12.704;2023-02-16T01:20:42;-1.20;99.90
10572;DHT22;5334;48.928;12.704;2023-02-16T01:23:09;-1.30;99.90
10572;DHT22;5334;48.928;12.704;2023-02-16T01:25:35;-1.40;99.90
10572;DHT22;5334;48.928;12.704;2023-02-16T01:28:02;-1.30;99.90
10572;DHT22;5334;48.928;12.704;2023-02-16T01:30:28;-1.30;99.90
10572;DHT22;5334;48.928;12.704;2023-02-16T01:32:54;-1.30;99.90
10572;DHT22;5334;48.928;12.704;2023-02-16T01:35:28;-1.30;99.90
10572;DHT22;5334;48.928;12.704;2023-02-16T01:37:55;-1.30;99.90
10572;DHT22;5334;48.928;12.704;2023-02-16T01:45:35;-1.30;99.90
10572;DHT22;5334;48.928;12.704;2023-02-16T01:48:06;-1.30;99.90
10572;DHT22;5334;48.928;12.704;2023-02-16T01:50:42;-1.40;99.90
10572;DHT22;5334;48.928;12.704;2023-02-16T01:53:20;-1.40;99.90
10572;DHT22;5334;48.928;12.704;2023-02-16T01:55:52;-1.40;99.90
10572;DHT22;5334;48.928;12.704;2023-02-16T01:58:45;-1.40;99.90
10572;DHT22;5334;48.928;12.704;2023-02-16T02:03:39;-1.50;99.90
10572;DHT22;5334;48.928;12.704;2023-02-16T02:06:32;-1.50;99.90
10572;DHT22;5334;48.928;12.704;2023-02-16T02:09:04;-1.40;99.90
10572;DHT22;5334;48.928;12.704;2023-02-16T02:14:19;-1.40;99.90
10572;DHT22;5334;48.928;12.704;2023-02-16T02:17:00;-1.40;99.90
10572;DHT22;5334;48.928;12.704;2023-02-16T02:19:28;-1.50;99.90
10572;DHT22;5334;48.928;12.704;2023-02-16T02:28:18;-1.50;99.90
10572;DHT22;5334;48.928;12.704;2023-02-16T02:30:54;-1.60;99.90
10572;DHT22;5334;48.928;12.704;2023-02-16T02:34:22;-1.50;99.90
10572;DHT22;5334;48.928;12.704;2023-02-16T02:36:34;-1.50;99.90
10572;DHT22;5334;48.928;12.704;2023-02-16T02:42:17;-1.30;99.90
10572;DHT22;5334;48.928;12.704;2023-02-16T02:45:20;-1.30;99.90
10572;DHT22;5334;48.928;12.704;2023-02-16T02:47:47;-1.30;99.90
10572;DHT22;5334;48.928;12.704;2023-02-16T02:50:57;-1.30;99.90
10572;DHT22;5334;48.928;12.704;2023-02-16T02:53:55;-1.40;99.90
10572;DHT22;5334;48.928;12.704;2023-02-16T03:00:52;-1.40;99.90
10572;DHT22;5334;48.928;12.704;2023-02-16T03:05:56;-1.40;99.90
10572;DHT22;5334;48.928;12.704;2023-02-16T03:08:24;-1.40;99.90
10572;DHT22;5334;48.928;12.704;2023-02-16T03:10:55;-1.50;99.90
10572;DHT22;5334;48.928;12.704;2023-02-16T03:13:51;-1.50;99.90
10572;DHT22;5334;48.928;12.704;2023-02-16T03:16:31;-1.50;99.90
10572;DHT22;5334;48.928;12.704;2023-02-16T03:18:59;-1.50;99.90
10572;DHT22;5334;48.928;12.704;2023-02-16T03:21:45;-1.40;99.90
10572;DHT22;5334;48.928;12.704;2023-02-16T03:24:30;-1.40;99.90
10572;DHT22;5334;48.928;12.704;2023-02-16T03:27:26;-1.40;99.90
10572;DHT22;5334;48.928;12.704;2023-02-16T03:30:12;-1.30;99.90
10572;DHT22;5334;48.928;12.704;2023-02-16T03:32:40;-1.30;99.90
10572;DHT22;5334;48.928;12.704;2023-02-16T03:35:06;-1.20;99.90
10572;DHT22;5334;48.928;12.704;2023-02-16T03:37:33;-1.30;99.90
10572;DHT22;5334;48.928;12.704;2023-02-16T03:39:59;-1.30;99.90
10572;DHT22;5334;48.928;12.704;2023-02-16T03:42:50;-1.50;99.90
10572;DHT22;5334;48.928;12.704;2023-02-16T03:45:19;-1.60;99.90
10572;DHT22;5334;48.928;12.704;2023-02-16T03:47:45;-1.50;99.90
10572;DHT22;5334;48.928;12.704;2023-02-16T03:50:11;-1.40;99.90
10572;DHT22;5334;48.928;12.704;2023-02-16T03:52:37;-1.40;99.90
10572;DHT22;5334;48.928;12.704;2023-02-16T03:55:03;-1.50;99.90
10572;DHT22;5334;48.928;12.704;2023-02-16T03:57:28;-1.40;99.90
10572;DHT22;5334;48.928;12.704;2023-02-16T03:59:54;-1.40;99.90
10572;DHT22;5334;48.928;12.704;2023-02-16T04:02:20;-1.40;99.90
10572;DHT22;5334;48.928;12.704;2023-02-16T04:04:46;-1.40;99.90
10572;DHT22;5334;48.928;12.704;2023-02-16T04:07:12;-1.40;99.90
10572;DHT22;5334;48.928;12.704;2023-02-16T04:09:38;-1.40;99.90
10572;DHT22;5334;48.928;12.704;2023-02-16T04:12:04;-1.40;99.90
10572;DHT22;5334;48.928;12.704;2023-02-16T04:14:48;-1.50;99.90
10572;DHT22;5334;48.928;12.704;2023-02-16T04:17:14;-1.60;99.90
10572;DHT22;5334;48.928;12.704;2023-02-16T04:19:40;-1.60;99.90
10572;DHT22;5334;48.928;12.704;2023-02-16T04:22:06;-1.60;99.90
10572;DHT22;5334;48.928;12.704;2023-02-16T04:24:31;-1.50;99.90
10572;DHT22;5334;48.928;12.704;2023-02-16T04:26:57;-1.50;99.90
10572;DHT22;5334;48.928;12.704;2023-02-16T04:29:23;-1.60;99.90
10572;DHT22;5334;48.928;12.704;2023-02-16T04:31:48;-1.60;99.90
10572;DHT22;5334;48.928;12.704;2023-02-16T04:34:14;-1.60;99.90
10572;DHT22;5334;48.928;12.704;2023-02-16T04:36:40;-1.50;99.90
10572;DHT22;5334;48.928;12.704;2023-02-16T04:39:06;-1.60;99.90
10572;DHT22;5334;48.928;12.704;2023-02-16T04:41:31;-1.60;99.90
10572;DHT22;5334;48.928;12.704;2023-02-16T04:43:57;-1.70;99.90
10572;DHT22;5334;48.928;12.704;2023-02-16T04:46:22;-1.70;99.90
10572;DHT22;5334;48.928;12.704;2023-02-16T04:48:48;-1.70;99.90
10572;DHT22;5334;48.928;12.704;2023-02-16T04:51:14;-1.70;99.90
10572;DHT22;5334;48.928;12.704;2023-02-16T04:53:40;-1.80;99.90
10572;DHT22;5334;48.928;12.704;2023-02-16T04:56:08;-1.80;99.90
10572;DHT22;5334;48.928;12.704;2023-02-16T05:01:01;-1.90;99.90
10572;DHT22;5334;48.928;12.704;2023-02-16T05:03:27;-1.90;99.90
10572;DHT22;5334;48.928;12.704;2023-02-16T05:05:53;-1.70;99.90
10572;DHT22;5334;48.928;12.704;2023-02-16T05:08:18;-1.80;99.90
10572;DHT22;5334;48.928;12.704;2023-02-16T05:10:44;-1.80;99.90
10572;DHT22;5334;48.928;12.704;2023-02-16T05:13:10;-1.80;99.90
10572;DHT22;5334;48.928;12.704;2023-02-16T05:15:55;-1.80;99.90
10572;DHT22;5334;48.928;12.704;2023-02-16T05:18:21;-1.80;99.90
10572;DHT22;5334;48.928;12.704;2023-02-16T05:20:46;-1.80;99.90
10572;DHT22;5334;48.928;12.704;2023-02-16T05:23:31;-1.70;99.90
10572;DHT22;5334;48.928;12.704;2023-02-16T05:25:56;-1.90;99.90
10572;DHT22;5334;48.928;12.704;2023-02-16T05:28:22;-1.90;99.90
10572;DHT22;5334;48.928;12.704;2023-02-16T05:30:47;-1.90;99.90
10572;DHT22;5334;48.928;12.704;2023-02-16T05:33:13;-1.70;99.90
10572;DHT22;5334;48.928;12.704;2023-02-16T05:35:39;-1.80;99.90
10572;DHT22;5334;48.928;12.704;2023-02-16T05:38:04;-1.80;99.90
10572;DHT22;5334;48.928;12.704;2023-02-16T05:40:30;-1.90;99.90
10572;DHT22;5334;48.928;12.704;2023-02-16T05:42:56;-1.80;99.90
10572;DHT22;5334;48.928;12.704;2023-02-16T05:45:21;-1.80;99.90
10572;DHT22;5334;48.928;12.704;2023-02-16T05:47:47;-1.80;99.90
10572;DHT22;5334;48.928;12.704;2023-02-16T05:50:13;-1.90;99.90
10572;DHT22;5334;48.928;12.704;2023-02-16T05:52:38;-1.90;99.90
10572;DHT22;5334;48.928;12.704;2023-02-16T05:55:04;-1.90;99.90
10572;DHT22;5334;48.928;12.704;2023-02-16T05:57:30;-1.90;99.90
10572;DHT22;5334;48.928;12.704;2023-02-16T05:59:59;-1.90;99.90
10572;DHT22;5334;48.928;12.704;2023-02-16T06:02:24;-1.90;99.90
10572;DHT22;5334;48.928;12.704;2023-02-16T06:04:50;-1.90;99.90
10572;DHT22;5334;48.928;12.704;2023-02-16T06:07:16;-1.90;99.90
10572;DHT22;5334;48.928;12.704;2023-02-16T06:09:41;-1.90;99.90
10572;DHT22;5334;48.928;12.704;2023-02-16T06:12:07;-1.80;99.90
10572;DHT22;5334;48.928;12.704;2023-02-16T06:14:33;-1.80;99.90
10572;DHT22;5334;48.928;12.704;2023-02-16T06:16:58;-1.80;99.90
10572;DHT22;5334;48.928;12.704;2023-02-16T06:19:25;-1.70;99.90
10572;DHT22;5334;48.928;12.704;2023-02-16T06:21:51;-1.80;99.90
10572;DHT22;5334;48.928;12.704;2023-02-16T06:24:17;-1.80;99.90
10572;DHT22;5334;48.928;12.704;2023-02-16T06:26:42;-1.90;99.90
10572;DHT22;5334;48.928;12.704;2023-02-16T06:29:09;-1.90;99.90
10572;DHT22;5334;48.928;12.704;2023-02-16T06:31:35;-1.90;99.90
10572;DHT22;5334;48.928;12.704;2023-02-16T06:34:00;-1.90;99.90
10572;DHT22;5334;48.928;12.704;2023-02-16T06:36:28;-1.80;99.90
10572;DHT22;5334;48.928;12.704;2023-02-16T06:38:53;-2.00;99.90
10572;DHT22;5334;48.928;12.704;2023-02-16T06:41:19;-2.00;99.90
10572;DHT22;5334;48.928;12.704;2023-02-16T06:44:01;-2.00;99.90
10572;DHT22;5334;48.928;12.704;2023-02-16T06:46:27;-1.90;99.90
10572;DHT22;5334;48.928;12.704;2023-02-16T06:48:52;-1.80;99.90
10572;DHT22;5334;48.928;12.704;2023-02-16T06:51:18;-1.80;99.90
10572;DHT22;5334;48.928;12.704;2023-02-16T06:53:45;-1.90;99.90
10572;DHT22;5334;48.928;12.704;2023-02-16T06:56:10;-1.90;99.90
10572;DHT22;5334;48.928;12.704;2023-02-16T06:58:36;-1.90;99.90
10572;DHT22;5334;48.928;12.704;2023-02-16T07:01:02;-1.90;99.90
10572;DHT22;5334;48.928;12.704;2023-02-16T07:03:27;-1.90;99.90
10572;DHT22;5334;48.928;12.704;2023-02-16T07:05:53;-1.90;99.90
10572;DHT22;5334;48.928;12.704;2023-02-16T07:08:19;-1.90;99.90
10572;DHT22;5334;48.928;12.704;2023-02-16T07:10:45;-1.90;99.90
10572;DHT22;5334;48.928;12.704;2023-02-16T07:13:12;-1.80;99.90
10572;DHT22;5334;48.928;12.704;2023-02-16T07:15:37;-1.70;99.90
10572;DHT22;5334;48.928;12.704;2023-02-16T07:18:04;-1.70;99.90
10572;DHT22;5334;48.928;12.704;2023-02-16T07:20:29;-1.60;99.90
10572;DHT22;5334;48.928;12.704;2023-02-16T07:22:55;-1.60;99.90
10572;DHT22;5334;48.928;12.704;2023-02-16T07:25:21;-1.70;99.90
10572;DHT22;5334;48.928;12.704;2023-02-16T07:27:49;-1.70;99.90
10572;DHT22;5334;48.928;12.704;2023-02-16T07:30:15;-1.70;99.90
10572;DHT22;5334;48.928;12.704;2023-02-16T07:32:41;-1.70;99.90
10572;DHT22;5334;48.928;12.704;2023-02-16T07:35:07;-1.70;99.90
10572;DHT22;5334;48.928;12.704;2023-02-16T07:37:33;-1.60;99.90
10572;DHT22;5334;48.928;12.704;2023-02-16T07:39:59;-1.60;99.90
10572;DHT22;5334;48.928;12.704;2023-02-16T07:42:29;-1.50;99.90
10572;DHT22;5334;48.928;12.704;2023-02-16T07:44:55;-1.50;99.90
10572;DHT22;5334;48.928;12.704;2023-02-16T07:47:21;-1.40;99.90
10572;DHT22;5334;48.928;12.704;2023-02-16T07:49:46;-1.40;99.90
10572;DHT22;5334;48.928;12.704;2023-02-16T07:52:12;-1.30;99.90
10572;DHT22;5334;48.928;12.704;2023-02-16T07:54:38;-1.20;99.90
10572;DHT22;5334;48.928;12.704;2023-02-16T07:57:03;-1.20;99.90
10572;DHT22;5334;48.928;12.704;2023-02-16T07:59:29;-1.20;99.90
10572;DHT22;5334;48.928;12.704;2023-02-16T08:01:55;-1.20;99.90
10572;DHT22;5334;48.928;12.704;2023-02-16T08:04:21;-1.20;99.90
10572;DHT22;5334;48.928;12.704;2023-02-16T08:06:46;-1.10;99.90
10572;DHT22;5334;48.928;12.704;2023-02-16T08:09:16;-1.10;99.90
10572;DHT22;5334;48.928;12.704;2023-02-16T08:11:42;-1.00;99.90
10572;DHT22;5334;48.928;12.704;2023-02-16T08:14:08;-1.00;99.90
10572;DHT22;5334;48.928;12.704;2023-02-16T08:16:34;-1.00;99.90
10572;DHT22;5334;48.928;12.704;2023-02-16T08:19:00;-1.10;99.90
10572;DHT22;5334;48.928;12.704;2023-02-16T08:21:30;-1.10;99.90
10572;DHT22;5334;48.928;12.704;2023-02-16T08:23:59;-1.00;99.90
10572;DHT22;5334;48.928;12.704;2023-02-16T08:26:28;-1.00;99.90
10572;DHT22;5334;48.928;12.704;2023-02-16T08:28:55;-1.20;99.90
10572;DHT22;5334;48.928;12.704;2023-02-16T08:31:24;-1.20;99.90
10572;DHT22;5334;48.928;12.704;2023-02-16T08:33:51;-1.10;99.90
10572;DHT22;5334;48.928;12.704;2023-02-16T08:36:19;-1.10;99.90
10572;DHT22;5334;48.928;12.704;2023-02-16T08:38:46;-1.10;99.90
10572;DHT22;5334;48.928;12.704;2023-02-16T08:41:14;-1.10;99.90
10572;DHT22;5334;48.928;12.704;2023-02-16T08:43:40;-1.10;99.90
10572;DHT22;5334;48.928;12.704;2023-02-16T08:46:06;-1.10;99.90
10572;DHT22;5334;48.928;12.704;2023-02-16T08:48:35;-1.10;99.90
10572;DHT22;5334;48.928;12.704;2023-02-16T08:51:01;-1.10;99.90
10572;DHT22;5334;48.928;12.704;2023-02-16T08:53:27;-1.10;99.90
10572;DHT22;5334;48.928;12.704;2023-02-16T08:55:58;-1.00;99.90
10572;DHT22;5334;48.928;12.704;2023-02-16T08:58:25;-1.00;99.90
10572;DHT22;5334;48.928;12.704;2023-02-16T09:00:51;-1.00;99.90
10572;DHT22;5334;48.928;12.704;2023-02-16T09:03:17;-0.90;99.90
10572;DHT22;5334;48.928;12.704;2023-02-16T09:05:44;-0.90;99.90
10572;DHT22;5334;48.928;12.704;2023-02-16T09:08:09;-0.90;99.90
10572;DHT22;5334;48.928;12.704;2023-02-16T09:10:35;-0.80;99.90
10572;DHT22;5334;48.928;12.704;2023-02-16T09:13:01;-0.80;99.90
10572;DHT22;5334;48.928;12.704;2023-02-16T09:15:27;-0.70;99.90
10572;DHT22;5334;48.928;12.704;2023-02-16T09:17:53;-0.70;99.90
10572;DHT22;5334;48.928;12.704;2023-02-16T09:20:19;-0.60;99.90
10572;DHT22;5334;48.928;12.704;2023-02-16T09:22:45;-0.60;99.90
10572;DHT22;5334;48.928;12.704;2023-02-16T09:25:12;-0.70;99.90
10572;DHT22;5334;48.928;12.704;2023-02-16T09:27:38;-0.80;99.90
10572;DHT22;5334;48.928;12.704;2023-02-16T09:30:04;-0.80;99.90
10572;DHT22;5334;48.928;12.704;2023-02-16T09:32:30;-0.70;99.90
10572;DHT22;5334;48.928;12.704;2023-02-16T09:34:56;-0.70;99.90
10572;DHT22;5334;48.928;12.704;2023-02-16T09:37:22;-0.60;99.90
10572;DHT22;5334;48.928;12.704;2023-02-16T09:39:48;-0.60;99.90
10572;DHT22;5334;48.928;12.704;2023-02-16T09:45:09;-0.40;99.90
10572;DHT22;5334;48.928;12.704;2023-02-16T09:47:42;-0.50;99.90
10572;DHT22;5334;48.928;12.704;2023-02-16T09:50:30;-0.60;99.90
10572;DHT22;5334;48.928;12.704;2023-02-16T09:53:08;-0.60;99.90
10572;DHT22;5334;48.928;12.704;2023-02-16T09:56:28;-0.60;99.90
10572;DHT22;5334;48.928;12.704;2023-02-16T09:59:12;-0.60;99.90
10572;DHT22;5334;48.928;12.704;2023-02-16T10:05:02;-0.60;99.90
10572;DHT22;5334;48.928;12.704;2023-02-16T10:10:13;-0.60;99.90
10572;DHT22;5334;48.928;12.704;2023-02-16T10:12:45;-0.60;99.90
10572;DHT22;5334;48.928;12.704;2023-02-16T10:15:15;-0.50;99.90
10572;DHT22;5334;48.928;12.704;2023-02-16T10:17:48;-0.50;99.90
10572;DHT22;5334;48.928;12.704;2023-02-16T10:20:36;-0.60;99.90
10572;DHT22;5334;48.928;12.704;2023-02-16T10:28:20;-0.70;99.90
10572;DHT22;5334;48.928;12.704;2023-02-16T10:30:59;-0.60;99.90
10572;DHT22;5334;48.928;12.704;2023-02-16T10:36:00;-0.50;99.90
10572;DHT22;5334;48.928;12.704;2023-02-16T10:41:36;-0.50;99.90
10572;DHT22;5334;48.928;12.704;2023-02-16T10:44:24;-0.50;99.90
10572;DHT22;5334;48.928;12.704;2023-02-16T10:47:03;-0.50;99.90
10572;DHT22;5334;48.928;12.704;2023-02-16T10:49:30;-0.40;99.90
10572;DHT22;5334;48.928;12.704;2023-02-16T10:51:58;-0.30;99.90
10572;DHT22;5334;48.928;12.704;2023-02-16T10:54:28;-0.40;99.90
10572;DHT22;5334;48.928;12.704;2023-02-16T10:57:04;-0.40;99.90
10572;DHT22;5334;48.928;12.704;2023-02-16T11:02:25;-0.20;99.90
10572;DHT22;5334;48.928;12.704;2023-02-16T11:04:55;-0.20;99.90
10572;DHT22;5334;48.928;12.704;2023-02-16T11:07:23;-0.20;99.90
10572;DHT22;5334;48.928;12.704;2023-02-16T11:09:51;-0.10;99.90
10572;DHT22;5334;48.928;12.704;2023-02-16T11:14:59;-0.10;99.90
10572;DHT22;5334;48.928;12.704;2023-02-16T11:17:28;0.10;99.90
10572;DHT22;5334;48.928;12.704;2023-02-16T11:20:00;0.10;99.90
10572;DHT22;5334;48.928;12.704;2023-02-16T11:22:38;0.10;99.90
10572;DHT22;5334;48.928;12.704;2023-02-16T11:28:03;0.10;99.90
10572;DHT22;5334;48.928;12.704;2023-02-16T11:30:36;0.10;99.90
10572;DHT22;5334;48.928;12.704;2023-02-16T11:33:09;0.10;99.90
10572;DHT22;5334;48.928;12.704;2023-02-16T11:35:43;0.30;99.90
10572;DHT22;5334;48.928;12.704;2023-02-16T11:40:50;0.30;99.90
10572;DHT22;5334;48.928;12.704;2023-02-16T11:43:18;0.20;99.90
10572;DHT22;5334;48.928;12.704;2023-02-16T11:45:56;0.20;99.90
10572;DHT22;5334;48.928;12.704;2023-02-16T11:48:30;0.20;99.90
10572;DHT22;5334;48.928;12.704;2023-02-16T11:51:05;0.30;99.90
10572;DHT22;5334;48.928;12.704;2023-02-16T11:53:33;0.30;99.90
10572;DHT22;5334;48.928;12.704;2023-02-16T11:56:22;0.30;99.90
10572;DHT22;5334;48.928;12.704;2023-02-16T11:59:17;0.20;99.90
10572;DHT22;5334;48.928;12.704;2023-02-16T12:04:53;0.20;99.90
10572;DHT22;5334;48.928;12.704;2023-02-16T12:10:24;0.20;99.90
10572;DHT22;5334;48.928;12.704;2023-02-16T12:12:59;0.20;99.90
10572;DHT22;5334;48.928;12.704;2023-02-16T12:26:52;0.40;99.90
10572;DHT22;5334;48.928;12.704;2023-02-16T12:29:38;0.40;99.90
10572;DHT22;5334;48.928;12.704;2023-02-16T12:43:36;0.40;99.90
10572;DHT22;5334;48.928;12.704;2023-02-16T12:46:16;0.50;99.90
10572;DHT22;5334;48.928;12.704;2023-02-16T12:48:50;0.50;99.90
10572;DHT22;5334;48.928;12.704;2023-02-16T12:51:21;0.50;99.90
10572;DHT22;5334;48.928;12.704;2023-02-16T12:54:09;0.60;99.90
10572;DHT22;5334;48.928;12.704;2023-02-16T12:56:42;0.60;99.90
10572;DHT22;5334;48.928;12.704;2023-02-16T12:59:45;0.60;99.90
10572;DHT22;5334;48.928;12.704;2023-02-16T13:05:01;0.50;99.90
10572;DHT22;5334;48.928;12.704;2023-02-16T13:07:31;0.50;99.90
10572;DHT22;5334;48.928;12.704;2023-02-16T13:10:03;0.50;99.90
10572;DHT22;5334;48.928;12.704;2023-02-16T13:15:38;0.60;99.90
10572;DHT22;5334;48.928;12.704;2023-02-16T13:18:19;0.60;99.90
10572;DHT22;5334;48.928;12.704;2023-02-16T13:20:49;0.60;99.90
10572;DHT22;5334;48.928;12.704;2023-02-16T13:28:55;0.60;99.90
10572;DHT22;5334;48.928;12.704;2023-02-16T13:42:01;0.90;99.90
10572;DHT22;5334;48.928;12.704;2023-02-16T13:44:44;0.90;99.90
10572;DHT22;5334;48.928;12.704;2023-02-16T13:47:14;0.90;99.90
10572;DHT22;5334;48.928;12.704;2023-02-16T13:49:42;0.90;99.90
10572;DHT22;5334;48.928;12.704;2023-02-16T13:52:38;0.90;99.90
10572;DHT22;5334;48.928;12.704;2023-02-16T13:55:20;0.90;99.90
10572;DHT22;5334;48.928;12.704;2023-02-16T14:05:37;0.70;99.90
10572;DHT22;5334;48.928;12.704;2023-02-16T14:08:25;0.70;99.90
10572;DHT22;5334;48.928;12.704;2023-02-16T14:10:55;0.70;99.90
10572;DHT22;5334;48.928;12.704;2023-02-16T14:16:08;0.60;99.90
10572;DHT22;5334;48.928;12.704;2023-02-16T14:21:05;0.60;99.90
10572;DHT22;5334;48.928;12.704;2023-02-16T14:23:40;0.60;99.90
10572;DHT22;5334;48.928;12.704;2023-02-16T14:26:07;0.60;99.90
10572;DHT22;5334;48.928;12.704;2023-02-16T14:31:03;0.40;99.90
10572;DHT22;5334;48.928;12.704;2023-02-16T14:33:43;0.40;99.90
10572;DHT22;5334;48.928;12.704;2023-02-16T14:36:14;0.40;99.90
10572;DHT22;5334;48.928;12.704;2023-02-16T14:41:26;0.60;99.90
10572;DHT22;5334;48.928;12.704;2023-02-16T14:49:56;0.40;99.90
10572;DHT22;5334;48.928;12.704;2023-02-16T14:53:15;0.50;99.90
10572;DHT22;5334;48.928;12.704;2023-02-16T15:00:49;0.60;99.90
10572;DHT22;5334;48.928;12.704;2023-02-16T15:08:52;0.60;99.90
10572;DHT22;5334;48.928;12.704;2023-02-16T15:11:33;0.70;99.90
10572;DHT22;5334;48.928;12.704;2023-02-16T15:14:09;0.60;99.90
10572;DHT22;5334;48.928;12.704;2023-02-16T15:16:38;0.50;99.90
10572;DHT22;5334;48.928;12.704;2023-02-16T15:19:10;0.40;99.90
10572;DHT22;5334;48.928;12.704;2023-02-16T15:21:37;0.40;99.90
10572;DHT22;5334;48.928;12.704;2023-02-16T15:24:03;0.50;99.90
10572;DHT22;5334;48.928;12.704;2023-02-16T15:26:35;0.50;99.90
10572;DHT22;5334;48.928;12.704;2023-02-16T15:31:41;0.50;99.90
10572;DHT22;5334;48.928;12.704;2023-02-16T15:34:12;0.40;99.90
10572;DHT22;5334;48.928;12.704;2023-02-16T15:36:41;0.40;99.90
10572;DHT22;5334;48.928;12.704;2023-02-16T15:39:23;0.40;99.90
10572;DHT22;5334;48.928;12.704;2023-02-16T15:41:50;0.50;99.90
10572;DHT22;5334;48.928;12.704;2023-02-16T15:44:34;0.50;99.90
10572;DHT22;5334;48.928;12.704;2023-02-16T15:47:11;0.50;99.90
10572;DHT22;5334;48.928;12.704;2023-02-16T15:49:38;0.30;99.90
10572;DHT22;5334;48.928;12.704;2023-02-16T15:52:07;0.30;99.90
10572;DHT22;5334;48.928;12.704;2023-02-16T15:54:36;0.30;99.90
10572;DHT22;5334;48.928;12.704;2023-02-16T15:59:45;0.20;99.90
10572;DHT22;5334;48.928;12.704;2023-02-16T16:02:19;0.20;99.90
10572;DHT22;5334;48.928;12.704;2023-02-16T16:07:32;0.30;99.90
10572;DHT22;5334;48.928;12.704;2023-02-16T16:10:01;0.40;99.90
10572;DHT22;5334;48.928;12.704;2023-02-16T16:12:28;0.30;99.90
10572;DHT22;5334;48.928;12.704;2023-02-16T16:14:58;0.30;99.90
10572;DHT22;5334;48.928;12.704;2023-02-16T16:17:33;0.20;99.90
10572;DHT22;5334;48.928;12.704;2023-02-16T16:20:31;0.20;99.90
10572;DHT22;5334;48.928;12.704;2023-02-16T16:23:19;0.20;99.90
10572;DHT22;5334;48.928;12.704;2023-02-16T16:25:48;0.30;99.90
10572;DHT22;5334;48.928;12.704;2023-02-16T16:34:08;0.30;99.90
10572;DHT22;5334;48.928;12.704;2023-02-16T16:36:53;0.30;99.90
10572;DHT22;5334;48.928;12.704;2023-02-16T16:39:22;0.30;99.90
10572;DHT22;5334;48.928;12.704;2023-02-16T16:44:36;0.30;99.90
10572;DHT22;5334;48.928;12.704;2023-02-16T16:49:55;0.30;99.90
10572;DHT22;5334;48.928;12.704;2023-02-16T16:52:41;0.30;99.90
10572;DHT22;5334;48.928;12.704;2023-02-16T16:57:46;0.20;99.90
10572;DHT22;5334;48.928;12.704;2023-02-16T17:00:13;0.20;99.90
10572;DHT22;5334;48.928;12.704;2023-02-16T17:02:39;0.20;99.90
10572;DHT22;5334;48.928;12.704;2023-02-16T17:05:05;0.20;99.90
10572;DHT22;5334;48.928;12.704;2023-02-16T17:07:31;0.20;99.90
10572;DHT22;5334;48.928;12.704;2023-02-16T17:09:59;0.20;99.90
10572;DHT22;5334;48.928;12.704;2023-02-16T17:12:26;0.20;99.90
10572;DHT22;5334;48.928;12.704;2023-02-16T17:14:52;0.20;99.90
10572;DHT22;5334;48.928;12.704;2023-02-16T17:17:18;0.10;99.90
10572;DHT22;5334;48.928;12.704;2023-02-16T17:19:44;0.10;99.90
10572;DHT22;5334;48.928;12.704;2023-02-16T17:22:18;0.10;99.90
10572;DHT22;5334;48.928;12.704;2023-02-16T17:24:44;0.10;99.90
10572;DHT22;5334;48.928;12.704;2023-02-16T17:27:12;0.00;99.90
10572;DHT22;5334;48.928;12.704;2023-02-16T17:29:38;0.00;99.90
10572;DHT22;5334;48.928;12.704;2023-02-16T17:32:07;0.00;99.90
10572;DHT22;5334;48.928;12.704;2023-02-16T17:34:33;0.00;99.90
10572;DHT22;5334;48.928;12.704;2023-02-16T17:37:01;-0.10;99.90
10572;DHT22;5334;48.928;12.704;2023-02-16T17:39:30;0.00;99.90
10572;DHT22;5334;48.928;12.704;2023-02-16T17:41:56;-0.10;99.90
10572;DHT22;5334;48.928;12.704;2023-02-16T17:44:22;-0.10;99.90
10572;DHT22;5334;48.928;12.704;2023-02-16T17:46:48;-0.20;99.90
10572;DHT22;5334;48.928;12.704;2023-02-16T17:49:13;-0.20;99.90
10572;DHT22;5334;48.928;12.704;2023-02-16T17:51:39;-0.20;99.90
10572;DHT22;5334;48.928;12.704;2023-02-16T17:54:06;-0.20;99.90
10572;DHT22;5334;48.928;12.704;2023-02-16T17:56:36;-0.10;99.90
10572;DHT22;5334;48.928;12.704;2023-02-16T17:59:04;-0.10;99.90
10572;DHT22;5334;48.928;12.704;2023-02-16T18:01:30;-0.10;99.90
10572;DHT22;5334;48.928;12.704;2023-02-16T18:03:57;0.00;99.90
10572;DHT22;5334;48.928;12.704;2023-02-16T18:06:24;-0.10;99.90
10572;DHT22;5334;48.928;12.704;2023-02-16T18:08:50;-0.20;99.90
10572;DHT22;5334;48.928;12.704;2023-02-16T18:11:16;-0.20;99.90
10572;DHT22;5334;48.928;12.704;2023-02-16T18:13:42;-0.30;99.90
10572;DHT22;5334;48.928;12.704;2023-02-16T18:16:12;-0.30;99.90
10572;DHT22;5334;48.928;12.704;2023-02-16T18:18:38;-0.30;99.90
10572;DHT22;5334;48.928;12.704;2023-02-16T18:21:04;-0.30;99.90
10572;DHT22;5334;48.928;12.704;2023-02-16T18:23:31;-0.30;99.90
10572;DHT22;5334;48.928;12.704;2023-02-16T18:25:57;-0.20;99.90
10572;DHT22;5334;48.928;12.704;2023-02-16T18:28:27;-0.20;99.90
10572;DHT22;5334;48.928;12.704;2023-02-16T18:30:54;-0.20;99.90
10572;DHT22;5334;48.928;12.704;2023-02-16T18:33:20;-0.20;99.90
10572;DHT22;5334;48.928;12.704;2023-02-16T18:35:47;-0.20;99.90
10572;DHT22;5334;48.928;12.704;2023-02-16T18:38:13;-0.20;99.90
10572;DHT22;5334;48.928;12.704;2023-02-16T18:40:42;-0.20;99.90
10572;DHT22;5334;48.928;12.704;2023-02-16T18:43:08;-0.30;99.90
10572;DHT22;5334;48.928;12.704;2023-02-16T18:45:36;-0.30;99.90
10572;DHT22;5334;48.928;12.704;2023-02-16T18:48:02;-0.30;99.90